createdAt,value
2024-05-09T00:01:44.472Z,102669.19
2024-05-09T00:04:13.946Z,102665.36
2024-05-09T00:06:43.385Z,102662.08
2024-05-09T00:09:12.787Z,102661.03
2024-05-09T00:11:42.253Z,102655.59
2024-05-09T00:14:11.775Z,102659.38
2024-05-09T00:16:41.186Z,102658.68
2024-05-09T00:19:10.872Z,102659.79
2024-05-09T00:21:43.956Z,102653.58
2024-05-09T00:24:13.437Z,102651.30
2024-05-09T00:26:42.816Z,102645.88
2024-05-09T00:29:12.276Z,102644.34
2024-05-09T00:31:41.638Z,102641.91
2024-05-09T00:34:11.173Z,102642.52
2024-05-09T00:36:40.630Z,102647.15
2024-05-09T00:39:09.987Z,102640.98
2024-05-09T00:41:39.505Z,102637.45
2024-05-09T00:44:09.311Z,102636.41
2024-05-09T00:46:41.460Z,102638.77
2024-05-09T00:49:12.468Z,102634.73
2024-05-09T00:51:42.358Z,102636.37
2024-05-09T00:54:12.155Z,102633.58
2024-05-09T00:56:44.972Z,102635.00
2024-05-09T00:59:15.317Z,102637.70
2024-05-09T01:01:45.559Z,102635.08
2024-05-09T01:04:15.405Z,102630.48
2024-05-09T01:06:44.871Z,102626.64
2024-05-09T01:09:14.390Z,102629.19
2024-05-09T01:11:43.774Z,102630.31
2024-05-09T01:14:13.139Z,102630.30
2024-05-09T01:16:43.391Z,102628.17
2024-05-09T01:19:22.810Z,102624.10
2024-05-09T01:21:52.265Z,102626.41
2024-05-09T01:24:21.961Z,102628.58
2024-05-09T01:26:51.870Z,102624.77
2024-05-09T01:29:21.258Z,102620.58
2024-05-09T01:31:52.215Z,102622.23
2024-05-09T01:34:21.715Z,102617.09
2024-05-09T01:36:51.102Z,102614.62
2024-05-09T01:39:23.064Z,102611.45
2024-05-09T01:41:52.466Z,102611.33
2024-05-09T01:44:23.988Z,102615.58
2024-05-09T01:46:53.573Z,102613.81
2024-05-09T01:49:23.393Z,102613.68
2024-05-09T01:51:52.940Z,102608.98
2024-05-09T01:54:25.254Z,102609.15
2024-05-09T01:56:56.671Z,102612.48
2024-05-09T01:59:28.655Z,102612.73
2024-05-09T02:01:58.281Z,102606.34
2024-05-09T02:04:27.869Z,102602.73
2024-05-09T02:06:59.454Z,102599.34
2024-05-09T02:09:29.030Z,102602.25
2024-05-09T02:11:58.443Z,102605.26
2024-05-09T02:14:28.088Z,102600.82
2024-05-09T02:16:57.999Z,102600.29
2024-05-09T02:19:27.747Z,102594.08
2024-05-09T02:21:57.237Z,102595.11
2024-05-09T02:24:27.083Z,102591.88
2024-05-09T02:26:56.400Z,102590.13
2024-05-09T02:29:25.921Z,102589.45
2024-05-09T02:31:55.550Z,102591.92
2024-05-09T02:34:25.036Z,102592.13
2024-05-09T02:36:57.260Z,102594.10
2024-05-09T02:39:26.745Z,102592.06
2024-05-09T02:41:58.520Z,102596.13
2024-05-09T02:44:33.360Z,102594.55
2024-05-09T02:47:03.039Z,102594.59
2024-05-09T02:49:32.699Z,102590.14
2024-05-09T02:52:02.036Z,102586.40
2024-05-09T02:54:31.385Z,102591.14
2024-05-09T02:57:03.068Z,102594.38
2024-05-09T02:59:32.475Z,102594.52
2024-05-09T03:02:01.860Z,102593.95
2024-05-09T03:04:31.491Z,102591.29
2024-05-09T03:07:01.047Z,102585.42
2024-05-09T03:09:30.379Z,102585.94
2024-05-09T03:11:59.824Z,102586.42
2024-05-09T03:14:29.437Z,102592.42
2024-05-09T03:16:58.968Z,102590.19
2024-05-09T03:19:28.569Z,102593.66
2024-05-09T03:22:01.278Z,102589.41
2024-05-09T03:24:30.829Z,102586.59
2024-05-09T03:27:00.167Z,102586.95
2024-05-09T03:29:29.678Z,102585.86
2024-05-09T03:32:00.344Z,102585.64
2024-05-09T03:34:29.954Z,102588.29
2024-05-09T03:36:59.370Z,102588.10
2024-05-09T03:39:28.714Z,102592.89
2024-05-09T03:41:58.227Z,102593.09
2024-05-09T03:44:27.683Z,102591.65
2024-05-09T03:46:57.109Z,102596.03
2024-05-09T03:49:26.606Z,102600.52
2024-05-09T03:51:58.246Z,102603.55
2024-05-09T03:54:27.836Z,102602.69
2024-05-09T03:56:57.220Z,102603.38
2024-05-09T03:59:26.768Z,102606.58
2024-05-09T04:01:56.313Z,102608.15
2024-05-09T04:04:25.796Z,102607.11
2024-05-09T04:06:55.188Z,102607.85
2024-05-09T04:09:24.572Z,102603.95
2024-05-09T04:11:56.479Z,102602.93
2024-05-09T04:14:28.595Z,102609.45
2024-05-09T04:16:58.104Z,102605.18
2024-05-09T04:19:27.604Z,102605.17
2024-05-09T04:21:57.167Z,102601.42
2024-05-09T04:24:28.687Z,102596.83
2024-05-09T04:26:58.239Z,102597.00
2024-05-09T04:29:30.678Z,102595.88
2024-05-09T04:32:02.750Z,102599.05
2024-05-09T04:34:34.322Z,102601.30
2024-05-09T04:37:03.973Z,102603.55
2024-05-09T04:39:33.302Z,102602.38
2024-05-09T04:42:03.030Z,102605.02
2024-05-09T04:44:32.642Z,102606.16
2024-05-09T04:47:02.086Z,102607.64
2024-05-09T04:49:31.507Z,102606.98
2024-05-09T04:52:01.066Z,102607.02
2024-05-09T04:54:36.301Z,102608.66
2024-05-09T04:57:06.755Z,102609.86
2024-05-09T04:59:36.313Z,102612.02
2024-05-09T05:02:06.290Z,102610.27
2024-05-09T05:04:38.231Z,102613.99
2024-05-09T05:07:07.665Z,102612.40
2024-05-09T05:09:36.936Z,102613.41
2024-05-09T05:12:27.832Z,102612.16
2024-05-09T05:14:57.622Z,102611.59
2024-05-09T05:17:27.201Z,102611.02
2024-05-09T05:19:57.605Z,102613.13
2024-05-09T05:22:27.169Z,102616.27
2024-05-09T05:24:59.563Z,102616.13
2024-05-09T05:27:30.785Z,102615.69
2024-05-09T05:30:02.235Z,102620.14
2024-05-09T05:32:31.641Z,102624.48
2024-05-09T05:35:01.275Z,102621.20
2024-05-09T05:37:30.780Z,102622.20
2024-05-09T05:40:00.355Z,102621.09
2024-05-09T05:42:31.944Z,102617.95
2024-05-09T05:45:06.082Z,102617.52
2024-05-09T05:47:38.477Z,102622.58
2024-05-09T05:50:20.472Z,102623.73
2024-05-09T05:52:56.574Z,102623.32
2024-05-09T05:55:25.884Z,102625.48
2024-05-09T05:57:55.309Z,102624.39
2024-05-09T06:00:30.161Z,102627.54
2024-05-09T06:03:07.575Z,102627.30
2024-05-09T06:05:39.374Z,102629.18
2024-05-09T06:08:12.237Z,102630.25
2024-05-09T06:10:42.438Z,102629.75
2024-05-09T06:13:15.403Z,102624.00
2024-05-09T06:15:44.859Z,102632.24
2024-05-09T06:18:15.292Z,102635.11
2024-05-09T06:20:44.890Z,102631.19
2024-05-09T06:23:15.081Z,102632.12
2024-05-09T06:25:44.532Z,102632.56
2024-05-09T06:28:16.508Z,102636.33
2024-05-09T06:30:45.954Z,102638.26
2024-05-09T06:33:16.520Z,102636.02
2024-05-09T06:35:47.473Z,102637.18
2024-05-09T06:38:16.892Z,102630.83
2024-05-09T06:40:46.693Z,102633.86
2024-05-09T06:43:18.637Z,102632.02
2024-05-09T06:45:49.792Z,102637.36
2024-05-09T06:48:21.270Z,102637.98
2024-05-09T06:50:53.887Z,102639.81
2024-05-09T06:53:25.989Z,102640.84
2024-05-09T06:55:57.990Z,102640.00
2024-05-09T06:58:27.487Z,102636.02
2024-05-09T07:00:56.937Z,102636.64
2024-05-09T07:03:26.519Z,102641.80
2024-05-09T07:05:56.197Z,102641.94
2024-05-09T07:08:25.593Z,102640.02
2024-05-09T07:10:57.648Z,102643.70
2024-05-09T07:13:27.122Z,102644.98
2024-05-09T07:15:56.498Z,102639.64
2024-05-09T07:18:25.996Z,102636.84
2024-05-09T07:20:55.494Z,102639.54
2024-05-09T07:23:25.512Z,102640.77
2024-05-09T07:25:55.029Z,102636.42
2024-05-09T07:28:24.793Z,102634.52
2024-05-09T07:30:54.177Z,102630.94
2024-05-09T07:33:24.497Z,102629.30
2024-05-09T07:35:54.393Z,102631.15
2024-05-09T07:38:25.991Z,102626.45
2024-05-09T07:40:57.903Z,102625.07
2024-05-09T07:43:28.004Z,102623.11
2024-05-09T07:46:00.900Z,102622.27
2024-05-09T07:53:55.992Z,102618.96
2024-05-09T07:56:28.121Z,102619.61
2024-05-09T07:58:57.755Z,102617.81
2024-05-09T08:01:29.266Z,102622.50
2024-05-09T08:03:58.875Z,102623.88
2024-05-09T08:06:28.520Z,102628.25
2024-05-09T08:09:00.880Z,102630.13
2024-05-09T08:11:34.640Z,102626.69
2024-05-09T08:14:04.001Z,102626.28
2024-05-09T08:16:35.703Z,102623.91
2024-05-09T08:19:05.411Z,102622.86
2024-05-09T08:21:34.879Z,102616.59
2024-05-09T08:24:05.162Z,102616.67
2024-05-09T08:26:34.607Z,102615.21
2024-05-09T08:29:04.002Z,102617.17
2024-05-09T08:31:41.176Z,102617.55
2024-05-09T08:34:11.761Z,102613.67
2024-05-09T08:36:43.846Z,102613.39
2024-05-09T08:39:13.282Z,102610.98
2024-05-09T08:41:48.744Z,102611.08
2024-05-09T08:44:22.584Z,102614.55
2024-05-09T08:46:53.079Z,102614.41
2024-05-09T08:49:24.717Z,102611.95
2024-05-09T08:51:54.348Z,102612.67
2024-05-09T08:54:23.800Z,102610.36
2024-05-09T08:56:56.224Z,102608.68
2024-05-09T08:59:36.475Z,102610.07
2024-05-09T09:07:31.209Z,102611.11
2024-05-09T09:10:05.575Z,102614.37
2024-05-09T09:12:35.443Z,102610.07
2024-05-09T09:15:05.384Z,102609.73
2024-05-09T09:17:35.730Z,102610.19
2024-05-09T09:20:11.302Z,102607.55
2024-05-09T09:22:43.394Z,102604.11
2024-05-09T09:25:15.214Z,102603.61
2024-05-09T09:27:44.791Z,102595.47
2024-05-09T09:30:27.709Z,102589.73
2024-05-09T09:33:06.857Z,102589.55
2024-05-09T09:35:39.067Z,102585.80
2024-05-09T09:38:10.081Z,102585.99
2024-05-09T09:40:49.509Z,102579.94
2024-05-09T09:43:21.882Z,102583.31
2024-05-09T09:45:53.691Z,102581.91
2024-05-09T09:48:24.192Z,102577.69
2024-05-09T09:50:54.178Z,102572.63
2024-05-09T09:53:24.231Z,102570.23
2024-05-09T09:55:55.697Z,102572.88
2024-05-09T09:58:25.283Z,102569.01
2024-05-09T10:00:55.132Z,102565.40
2024-05-09T10:03:24.725Z,102567.91
2024-05-09T10:05:57.377Z,102571.42
2024-05-09T10:08:26.937Z,102567.39
2024-05-09T10:10:57.090Z,102564.90
2024-05-09T10:13:35.290Z,102562.44
2024-05-09T10:16:11.207Z,102559.27
2024-05-09T10:18:41.808Z,102555.64
2024-05-09T10:21:20.994Z,102553.87
2024-05-09T10:24:01.875Z,102548.45
2024-05-09T10:26:35.422Z,102547.13
2024-05-09T10:29:14.189Z,102544.08
2024-05-09T10:31:46.394Z,102540.58
2024-05-09T10:34:20.708Z,102534.94
2024-05-09T10:36:55.857Z,102530.95
2024-05-09T10:39:26.392Z,102530.55
2024-05-09T10:41:57.898Z,102523.91
2024-05-09T10:44:27.144Z,102521.36
2024-05-09T10:46:56.563Z,102518.90
2024-05-09T10:49:26.398Z,102519.58
2024-05-09T10:51:55.966Z,102518.73
2024-05-09T10:54:34.774Z,102517.15
2024-05-09T10:57:09.550Z,102515.33
2024-05-09T10:59:42.307Z,102512.11
2024-05-09T11:02:12.057Z,102512.02
2024-05-09T11:04:44.996Z,102508.65
2024-05-09T11:07:17.107Z,102511.96
2024-05-09T11:09:48.182Z,102507.40
2024-05-09T11:12:19.316Z,102505.35
2024-05-09T11:14:56.324Z,102505.65
2024-05-09T11:17:25.828Z,102504.98
2024-05-09T11:19:57.465Z,102498.25
2024-05-09T11:22:32.620Z,102497.64
2024-05-09T11:25:03.635Z,102494.33
2024-05-09T11:27:33.008Z,102491.82
2024-05-09T11:30:03.222Z,102493.00
2024-05-09T11:32:37.382Z,102490.05
2024-05-09T11:35:07.722Z,102489.35
2024-05-09T11:37:40.615Z,102488.96
2024-05-09T11:40:16.983Z,102482.40
2024-05-09T11:42:53.890Z,102479.57
2024-05-09T11:45:27.619Z,102473.52
2024-05-09T11:47:57.035Z,102470.29
2024-05-09T11:50:32.718Z,102468.20
2024-05-09T11:53:05.008Z,102462.38
2024-05-09T11:55:36.165Z,102455.06
2024-05-09T11:58:06.386Z,102449.25
2024-05-09T12:00:37.580Z,102448.26
2024-05-09T12:03:07.970Z,102447.96
2024-05-09T12:05:37.578Z,102443.59
2024-05-09T12:08:08.622Z,102441.02
2024-05-09T12:10:38.595Z,102436.32
2024-05-09T12:13:08.162Z,102429.49
2024-05-09T12:15:38.888Z,102426.02
2024-05-09T12:18:10.957Z,102425.11
2024-05-09T12:20:40.528Z,102420.33
2024-05-09T12:23:10.694Z,102422.70
2024-05-09T12:25:44.736Z,102420.77
2024-05-09T12:28:16.580Z,102423.21
2024-05-09T12:30:46.233Z,102418.45
2024-05-09T12:33:16.098Z,102413.52
2024-05-09T12:35:47.413Z,102412.02
2024-05-09T12:38:19.295Z,102412.50
2024-05-09T12:40:48.684Z,102411.03
2024-05-09T12:43:18.503Z,102408.70
2024-05-09T12:45:48.150Z,102407.17
2024-05-09T12:48:17.798Z,102405.80
2024-05-09T12:50:47.524Z,102404.71
2024-05-09T12:53:19.420Z,102402.02
2024-05-09T12:55:56.433Z,102401.27
2024-05-09T12:58:29.362Z,102397.04
2024-05-09T13:00:59.345Z,102396.14
2024-05-09T13:03:28.969Z,102395.54
2024-05-09T13:05:58.911Z,102398.56
2024-05-09T13:08:30.628Z,102395.45
2024-05-09T13:11:02.283Z,102390.61
2024-05-09T13:13:31.710Z,102392.85
2024-05-09T13:16:01.127Z,102389.59
2024-05-09T13:18:30.590Z,102392.20
2024-05-09T13:21:00.159Z,102387.48
2024-05-09T13:23:29.584Z,102390.48
2024-05-09T13:25:59.030Z,102383.84
2024-05-09T13:28:32.143Z,102381.73
2024-05-09T13:31:01.695Z,102379.30
2024-05-09T13:33:31.295Z,102375.49
2024-05-09T13:36:00.774Z,102377.02
2024-05-09T13:38:30.093Z,102376.23
2024-05-09T13:40:59.570Z,102371.33
2024-05-09T13:43:29.153Z,102373.68
2024-05-09T13:46:01.344Z,102374.27
2024-05-09T13:48:31.390Z,102378.40
2024-05-09T13:51:03.386Z,102370.58
2024-05-09T13:53:32.717Z,102370.55
2024-05-09T13:56:02.135Z,102364.15
2024-05-09T13:58:31.662Z,102362.28
2024-05-09T14:01:01.163Z,102356.41
2024-05-09T14:03:30.821Z,102358.88
2024-05-09T14:06:00.723Z,102361.00
2024-05-09T14:08:30.491Z,102353.36
2024-05-09T14:10:59.941Z,102353.20
2024-05-09T14:13:29.401Z,102357.20
2024-05-09T14:16:01.563Z,102349.06
2024-05-09T14:18:33.390Z,102343.15
2024-05-09T14:21:03.739Z,102343.59
2024-05-09T14:23:35.561Z,102341.75
2024-05-09T14:26:05.307Z,102338.73
2024-05-09T14:28:34.948Z,102338.66
2024-05-09T14:31:04.606Z,102336.72
2024-05-09T14:33:36.710Z,102333.05
2024-05-09T14:36:09.581Z,102330.10
2024-05-09T14:38:39.175Z,102326.94
2024-05-09T14:41:09.463Z,102325.93
2024-05-09T14:43:39.094Z,102323.77
2024-05-09T14:46:08.846Z,102322.71
2024-05-09T14:48:38.314Z,102315.11
2024-05-09T14:51:08.469Z,102317.05
2024-05-09T14:53:37.836Z,102311.77
2024-05-09T14:56:08.386Z,102306.11
2024-05-09T14:58:37.742Z,102307.72
2024-05-09T15:01:10.290Z,102305.30
2024-05-09T15:03:39.994Z,102305.10
2024-05-09T15:06:09.925Z,102299.75
2024-05-09T15:08:39.754Z,102298.67
2024-05-09T15:11:09.191Z,102301.66
2024-05-09T15:13:38.851Z,102297.03
2024-05-09T15:16:09.356Z,102296.09
2024-05-09T15:18:43.136Z,102289.59
2024-05-09T15:21:13.227Z,102285.58
2024-05-09T15:23:42.924Z,102284.94
2024-05-09T15:26:12.274Z,102282.65
2024-05-09T15:28:43.359Z,102283.84
2024-05-09T15:31:12.753Z,102282.20
2024-05-09T15:33:42.641Z,102280.70
2024-05-09T15:36:13.795Z,102276.56
2024-05-09T15:38:45.618Z,102271.19
2024-05-09T15:41:15.625Z,102267.10
2024-05-09T15:43:46.981Z,102270.30
2024-05-09T15:46:16.536Z,102268.99
2024-05-09T15:48:48.381Z,102268.99
2024-05-09T15:51:19.992Z,102268.27
2024-05-09T15:53:49.619Z,102266.80
2024-05-09T15:56:21.902Z,102261.77
2024-05-09T15:58:53.774Z,102266.88
2024-05-09T16:01:23.381Z,102264.82
2024-05-09T16:03:53.183Z,102266.23
2024-05-09T16:06:23.454Z,102262.61
2024-05-09T16:08:52.984Z,102256.10
2024-05-09T16:11:22.328Z,102249.02
2024-05-09T16:13:51.792Z,102243.05
2024-05-09T16:16:21.927Z,102247.30
2024-05-09T16:18:51.510Z,102238.52
2024-05-09T16:21:20.956Z,102239.41
2024-05-09T16:23:52.865Z,102233.83
2024-05-09T16:26:24.446Z,102228.11
2024-05-09T16:28:53.864Z,102227.80
2024-05-09T16:31:23.323Z,102225.98
2024-05-09T16:33:53.210Z,102220.29
2024-05-09T16:36:22.862Z,102218.11
2024-05-09T16:38:52.191Z,102217.97
2024-05-09T16:41:24.956Z,102216.16
2024-05-09T16:43:57.676Z,102213.60
2024-05-09T16:46:29.189Z,102209.91
2024-05-09T16:49:01.047Z,102209.77
2024-05-09T16:51:30.574Z,102214.24
2024-05-09T16:54:02.550Z,102211.80
2024-05-09T16:56:33.997Z,102216.44
2024-05-09T16:59:03.384Z,102215.11
2024-05-09T17:01:32.881Z,102219.36
2024-05-09T17:04:02.659Z,102213.35
2024-05-09T17:06:34.727Z,102218.45
2024-05-09T17:09:08.581Z,102216.67
2024-05-09T17:11:41.325Z,102214.53
2024-05-09T17:14:13.428Z,102214.94
2024-05-09T17:16:42.891Z,102214.34
2024-05-09T17:19:13.884Z,102217.29
2024-05-09T17:21:45.800Z,102209.64
2024-05-09T17:24:15.419Z,102210.98
2024-05-09T17:26:45.645Z,102207.77
2024-05-09T17:29:15.185Z,102206.52
2024-05-09T17:31:44.536Z,102205.17
2024-05-09T17:34:14.491Z,102202.58
2024-05-09T17:36:46.471Z,102203.77
2024-05-09T17:39:16.137Z,102206.27
2024-05-09T17:41:45.553Z,102209.34
2024-05-09T17:44:14.797Z,102204.15
2024-05-09T17:46:46.807Z,102203.58
2024-05-09T17:49:18.872Z,102204.10
2024-05-09T17:51:54.866Z,102196.61
2024-05-09T17:54:27.272Z,102203.88
2024-05-09T17:56:56.640Z,102199.96
2024-05-09T17:59:29.058Z,102196.80
2024-05-09T18:01:58.525Z,102196.48
2024-05-09T18:04:29.700Z,102197.52
2024-05-09T18:07:00.478Z,102201.40
2024-05-09T18:09:29.826Z,102200.45
2024-05-09T18:11:59.925Z,102201.36
2024-05-09T18:14:29.327Z,102203.56
2024-05-09T18:16:58.653Z,102202.63
2024-05-09T18:19:28.351Z,102205.68
2024-05-09T18:21:57.762Z,102202.98
2024-05-09T18:24:27.742Z,102207.49
2024-05-09T18:26:58.989Z,102202.45
2024-05-09T18:29:28.559Z,102199.39
2024-05-09T18:32:00.487Z,102199.28
2024-05-09T18:34:30.148Z,102198.99
2024-05-09T18:37:04.214Z,102198.05
2024-05-09T18:39:34.193Z,102200.23
2024-05-09T18:42:03.796Z,102199.06
2024-05-09T18:44:35.655Z,102198.47
2024-05-09T18:47:07.361Z,102199.51
2024-05-09T18:49:38.970Z,102201.70
2024-05-09T18:52:08.874Z,102203.26
2024-05-09T18:54:38.941Z,102209.42
2024-05-09T18:57:08.612Z,102203.02
2024-05-09T18:59:38.047Z,102200.65
2024-05-09T19:02:07.859Z,102199.79
2024-05-09T19:04:37.568Z,102200.69
2024-05-09T19:07:07.272Z,102204.04
2024-05-09T19:09:36.696Z,102204.48
2024-05-09T19:12:07.119Z,102204.61
2024-05-09T19:14:36.531Z,102207.48
2024-05-09T19:17:06.073Z,102206.95
2024-05-09T19:19:35.577Z,102208.61
2024-05-09T19:22:07.778Z,102209.61
2024-05-09T19:24:37.850Z,102212.83
2024-05-09T19:27:08.978Z,102213.14
2024-05-09T19:29:38.372Z,102211.01
2024-05-09T19:32:08.328Z,102212.77
2024-05-09T19:34:39.966Z,102211.60
2024-05-09T19:37:09.566Z,102217.82
2024-05-09T19:39:39.337Z,102221.59
2024-05-09T19:42:08.862Z,102222.92
2024-05-09T19:44:40.710Z,102221.00
2024-05-09T19:47:10.197Z,102223.66
2024-05-09T19:49:39.567Z,102227.89
2024-05-09T19:52:09.202Z,102227.77
2024-05-09T19:54:38.652Z,102228.75
2024-05-09T19:57:08.181Z,102232.98
2024-05-09T19:59:37.612Z,102235.44
2024-05-09T20:02:07.237Z,102236.38
2024-05-09T20:04:36.809Z,102235.65
2024-05-09T20:07:08.767Z,102238.17
2024-05-09T20:09:40.398Z,102239.19
2024-05-09T20:12:12.254Z,102239.52
2024-05-09T20:14:41.514Z,102241.35
2024-05-09T20:17:10.836Z,102239.47
2024-05-09T20:19:42.568Z,102238.65
2024-05-09T20:22:14.791Z,102240.48
2024-05-09T20:24:44.220Z,102241.77
2024-05-09T20:27:13.593Z,102241.09
2024-05-09T20:29:45.258Z,102243.16
2024-05-09T20:32:14.543Z,102244.05
2024-05-09T20:34:43.943Z,102242.83
2024-05-09T20:37:13.449Z,102242.46
2024-05-09T20:39:42.892Z,102242.73
2024-05-09T20:42:12.250Z,102246.73
2024-05-09T20:44:41.515Z,102248.73
2024-05-09T20:47:11.932Z,102248.70
2024-05-09T20:49:41.306Z,102248.94
2024-05-09T20:52:10.811Z,102251.57
2024-05-09T20:54:42.378Z,102248.02
2024-05-09T20:57:11.830Z,102247.36
2024-05-09T20:59:41.532Z,102244.96
2024-05-09T21:02:13.075Z,102244.23
2024-05-09T21:04:42.663Z,102243.84
2024-05-09T21:07:12.260Z,102243.49
2024-05-09T21:09:41.772Z,102245.21
2024-05-09T21:12:11.283Z,102243.35
2024-05-09T21:14:40.864Z,102244.11
2024-05-09T21:17:10.474Z,102244.86
2024-05-09T21:19:39.924Z,102246.20
2024-05-09T21:22:09.310Z,102249.48
2024-05-09T21:24:38.718Z,102249.69
2024-05-09T21:27:08.137Z,102254.37
2024-05-09T21:29:37.613Z,102256.20
2024-05-09T21:32:07.914Z,102260.01
2024-05-09T21:34:37.346Z,102259.73
2024-05-09T21:37:10.055Z,102262.64
2024-05-09T21:39:39.509Z,102262.33
2024-05-09T21:42:08.923Z,102263.17
2024-05-09T21:44:40.412Z,102263.73
2024-05-09T21:47:09.782Z,102268.52
2024-05-09T21:49:39.544Z,102266.56
2024-05-09T21:52:08.966Z,102264.14
2024-05-09T21:54:38.328Z,102266.36
2024-05-09T21:57:09.911Z,102265.02
2024-05-09T21:59:41.418Z,102261.14
2024-05-09T22:02:11.718Z,102259.02
2024-05-09T22:04:41.235Z,102259.62
2024-05-09T22:07:13.228Z,102258.80
2024-05-09T22:09:45.102Z,102259.67
2024-05-09T22:12:14.550Z,102259.58
2024-05-09T22:14:46.307Z,102256.60
2024-05-09T22:17:17.932Z,102256.16
2024-05-09T22:19:50.312Z,102253.61
2024-05-09T22:22:20.336Z,102253.02
2024-05-09T22:24:49.770Z,102253.58
2024-05-09T22:27:19.158Z,102255.45
2024-05-09T22:29:48.469Z,102254.77
2024-05-09T22:32:17.936Z,102256.76
2024-05-09T22:34:49.467Z,102253.66
2024-05-09T22:37:18.866Z,102255.36
2024-05-09T22:39:48.181Z,102251.96
2024-05-09T22:42:17.564Z,102248.91
2024-05-09T22:44:48.955Z,102250.84
2024-05-09T22:47:18.382Z,102248.20
2024-05-09T22:49:47.708Z,102250.55
2024-05-09T22:52:17.257Z,102252.77
2024-05-09T22:54:46.752Z,102252.14
2024-05-09T22:57:16.277Z,102254.86
2024-05-09T22:59:45.614Z,102255.39
2024-05-09T23:02:17.338Z,102256.24
2024-05-09T23:04:46.812Z,102249.80
2024-05-09T23:07:16.833Z,102247.70
2024-05-09T23:09:47.297Z,102246.95
2024-05-09T23:12:17.590Z,102254.12
2024-05-09T23:14:46.930Z,102246.04
2024-05-09T23:17:16.477Z,102247.27
2024-05-09T23:19:48.361Z,102250.86
2024-05-09T23:22:17.929Z,102248.48
2024-05-09T23:24:47.766Z,102249.73
2024-05-09T23:27:19.292Z,102249.49
2024-05-09T23:29:48.700Z,102246.55
2024-05-09T23:32:19.442Z,102245.22
2024-05-09T23:34:51.411Z,102246.80
2024-05-09T23:37:20.976Z,102251.77
2024-05-09T23:39:53.986Z,102254.05
2024-05-09T23:42:23.360Z,102253.21
2024-05-09T23:44:53.470Z,102256.63
2024-05-09T23:47:22.923Z,102254.70
2024-05-09T23:49:52.332Z,102251.75
2024-05-09T23:52:22.348Z,102252.53
2024-05-09T23:54:51.820Z,102254.45
2024-05-09T23:57:21.406Z,102258.02
2024-05-09T23:59:51.042Z,102256.38
